Howell, Michigan
Current Conditions -  °F | °C
As of 1:35 PM on Saturday 25 Oct 2014 (Local Time) from KOZW Reporting Station
Scattered Clouds Scattered Clouds  
Wind Chill: 61°   Ceiling: Unl
Heat Index: 61°   Visibility: 7mi
Dew Point: 50°   Wind: 17mph
Humidity: 66%   Direction: 270°W
Pressure: 29.78"   Gusts: 22mph
Location:  42.61°N, 83.92°W
Report Text: KOZW 251735Z AUTO 27015G19KT 7SM SCT024 16/10 A2978 RMK AO2 T01620099
Loading
Personal Weather Stations






























Interactive Weather Map
Tropical Storm Tracking
New forecast layout! Learn more

10-Day Weather Forecast

Advertisements
Track Severe Weather on mobile